Time;durP1;ratioP1;P1;durP2;ratioP2;P2;SDS_P1;SDS_P2;PMS_P1;PMS_P2;Temp;Humidity;BMP_temperature;BMP_pressure;BME280_temperature;BME280_humidity;BME280_pressure;Samples;Min_cycle;Max_cycle;Signal;HPM_P1;HPM_P2
2022/04/05 00:00:32;;;;;;;13.15;10.63;;;4.40;99.90;;;;;;4372652;28;10021594;-77
2022/04/05 00:02:58;;;;;;;13.77;10.43;;;4.50;99.90;;;;;;5039282;28;20114;-77
2022/04/05 00:05:24;;;;;;;12.82;11.13;;;4.50;99.90;;;;;;5031717;28;20017;-77
2022/04/05 00:07:49;;;;;;;12.55;10.90;;;4.50;99.90;;;;;;5035698;28;20032;-77
2022/04/05 00:10:16;;;;;;;12.15;10.85;;;4.50;99.90;;;;;;5031372;28;20040;-77
2022/04/05 00:12:42;;;;;;;14.75;11.13;;;4.50;99.90;;;;;;5030185;28;20045;-77
2022/04/05 00:15:09;;;;;;;11.70;9.85;;;4.50;99.90;;;;;;5033826;28;20076;-77
2022/04/05 00:17:36;;;;;;;16.52;10.40;;;4.50;99.90;;;;;;5045879;28;20176;-74
2022/04/05 00:20:02;;;;;;;11.23;9.95;;;4.50;99.90;;;;;;5026389;28;20502;-75
2022/04/05 00:22:28;;;;;;;12.63;9.80;;;4.50;99.90;;;;;;5044194;28;20033;-74
2022/04/05 00:24:53;;;;;;;12.52;10.70;;;4.50;99.90;;;;;;5040443;28;20032;-75
2022/04/05 00:27:19;;;;;;;11.15;9.85;;;4.50;99.90;;;;;;5039081;28;20603;-75
2022/04/05 00:29:45;;;;;;;12.18;9.82;;;4.60;99.90;;;;;;5039362;28;20041;-75
2022/04/05 00:32:12;;;;;;;11.65;10.02;;;4.50;99.90;;;;;;5027298;28;20030;-74
2022/04/05 00:34:37;;;;;;;12.50;9.98;;;4.50;99.90;;;;;;5069955;28;20120;-75
2022/04/05 00:37:03;;;;;;;12.60;9.48;;;4.60;99.90;;;;;;5066377;28;20160;-74
2022/04/05 00:39:29;;;;;;;11.00;9.75;;;4.60;99.90;;;;;;5081915;28;20598;-75
2022/04/05 00:41:56;;;;;;;11.27;9.70;;;4.60;99.90;;;;;;5068777;28;20024;-75
2022/04/05 00:44:22;;;;;;;10.40;9.13;;;4.50;99.90;;;;;;5066618;28;20039;-75
2022/04/05 00:46:49;;;;;;;11.25;9.50;;;4.60;99.90;;;;;;5075257;28;20028;-75
2022/04/05 00:49:30;;;;;;;11.48;9.32;;;4.60;99.90;;;;;;5073117;28;20484;-75
2022/04/05 00:51:57;;;;;;;11.80;9.07;;;4.60;99.90;;;;;;5072869;28;20029;-75
2022/04/05 00:54:25;;;;;;;10.60;8.88;;;4.60;99.90;;;;;;5075976;28;20435;-75
2022/04/05 00:56:53;;;;;;;10.40;8.95;;;4.60;99.90;;;;;;5065780;28;20073;-75
2022/04/05 00:59:21;;;;;;;10.15;8.77;;;4.60;99.90;;;;;;5070576;28;20037;-75
2022/04/05 01:01:46;;;;;;;10.63;9.18;;;4.60;99.90;;;;;;5077432;28;20056;-75
2022/04/05 01:04:12;;;;;;;10.50;8.73;;;4.60;99.90;;;;;;5073626;28;20058;-75
2022/04/05 01:06:45;;;;;;;10.23;8.20;;;4.60;99.90;;;;;;5074528;28;20107;-75
2022/04/05 01:09:11;;;;;;;;;;;4.60;99.90;;;;;;5067767;28;20120;-75
2022/04/05 01:11:37;;;;;;;10.95;8.57;;;4.70;99.90;;;;;;5066604;28;20007;-75
2022/04/05 01:14:04;;;;;;;10.05;8.35;;;4.70;99.90;;;;;;5068173;28;20740;-75
2022/04/05 01:16:30;;;;;;;11.05;9.45;;;4.70;99.90;;;;;;5065857;28;20495;-74
2022/04/05 01:18:56;;;;;;;11.63;9.20;;;4.70;99.90;;;;;;5069365;28;20039;-75
2022/04/05 01:21:21;;;;;;;9.95;8.32;;;4.70;99.90;;;;;;5071385;28;20484;-75
2022/04/05 01:24:10;;;;;;;9.73;8.70;;;4.70;99.90;;;;;;5065735;28;20155;-75
2022/04/05 01:26:51;;;;;;;9.00;8.05;;;4.70;99.90;;;;;;5065330;28;20036;-74
2022/04/05 01:29:19;;;;;;;9.50;8.30;;;4.80;99.90;;;;;;5075427;28;20201;-74
2022/04/05 01:31:47;;;;;;;10.50;8.75;;;4.80;99.90;;;;;;5073466;28;20108;-74
2022/04/05 01:34:15;;;;;;;11.18;8.32;;;4.80;99.90;;;;;;5063133;28;20027;-74
2022/04/05 01:36:46;;;;;;;9.52;8.02;;;4.80;99.90;;;;;;5072747;28;20323;-75
2022/04/05 01:39:15;;;;;;;9.93;8.38;;;4.80;99.90;;;;;;5065331;28;20428;-74
2022/04/05 01:41:41;;;;;;;10.88;8.50;;;4.80;99.90;;;;;;5071763;28;20036;-74
2022/04/05 01:44:09;;;;;;;11.82;8.77;;;4.80;99.90;;;;;;5072103;28;20020;-75
2022/04/05 01:46:35;;;;;;;10.18;8.25;;;4.80;99.90;;;;;;5067632;28;20664;-75
2022/04/05 01:49:00;;;;;;;8.98;7.60;;;4.80;99.90;;;;;;5068755;28;20050;-74
2022/04/05 01:51:27;;;;;;;8.80;7.90;;;4.90;99.90;;;;;;5069081;28;20016;-74
2022/04/05 01:53:57;;;;;;;9.80;7.68;;;5.00;99.90;;;;;;5070805;28;20017;-75
2022/04/05 01:56:23;;;;;;;9.10;7.88;;;5.10;99.90;;;;;;5064849;28;20028;-75
2022/04/05 01:58:49;;;;;;;11.75;8.77;;;5.00;99.90;;;;;;5068770;28;20039;-75
2022/04/05 02:01:15;;;;;;;9.63;8.02;;;5.00;99.90;;;;;;5071924;28;20499;-75
2022/04/05 02:03:40;;;;;;;9.45;8.10;;;5.10;99.90;;;;;;5064729;28;20025;-75
2022/04/05 02:06:08;;;;;;;10.35;8.05;;;5.10;99.90;;;;;;5072039;28;20028;-75
2022/04/05 02:08:33;;;;;;;9.57;7.93;;;5.10;99.90;;;;;;5070135;28;20028;-75
2022/04/05 02:10:59;;;;;;;9.00;7.68;;;5.10;99.90;;;;;;5076165;28;20027;-76
2022/04/05 02:13:25;;;;;;;9.68;8.07;;;5.00;99.90;;;;;;5068741;28;20036;-76
2022/04/05 02:15:50;;;;;;;8.43;7.53;;;5.00;99.90;;;;;;5070496;28;20034;-75
2022/04/05 02:18:16;;;;;;;8.73;7.72;;;5.00;99.90;;;;;;5072781;28;20182;-76
2022/04/05 02:20:43;;;;;;;8.88;7.95;;;5.00;99.90;;;;;;5070627;28;20024;-75
2022/04/05 02:23:08;;;;;;;9.52;7.95;;;5.00;99.90;;;;;;5073396;28;20041;-75
2022/04/05 02:25:34;;;;;;;9.07;8.15;;;5.00;99.90;;;;;;5076577;28;20407;-75
2022/04/05 02:28:00;;;;;;;9.45;8.15;;;5.00;99.90;;;;;;5070446;28;20162;-75
2022/04/05 02:30:25;;;;;;;9.48;8.00;;;5.10;99.90;;;;;;5069857;28;20016;-75
2022/04/05 02:32:51;;;;;;;9.50;7.93;;;5.00;99.90;;;;;;5065003;28;20021;-75
2022/04/05 02:35:18;;;;;;;8.85;7.95;;;5.00;99.90;;;;;;5065031;28;20024;-75
2022/04/05 02:37:44;;;;;;;8.63;7.72;;;5.00;99.90;;;;;;5066595;28;20060;-75
2022/04/05 02:40:10;;;;;;;9.50;7.88;;;5.10;99.90;;;;;;5070123;28;20062;-75
2022/04/05 02:42:36;;;;;;;10.15;8.20;;;5.00;99.90;;;;;;5071239;28;20039;-75
2022/04/05 02:45:02;;;;;;;8.45;7.55;;;5.00;99.90;;;;;;5066058;28;20042;-75
2022/04/05 02:47:27;;;;;;;10.15;8.35;;;5.00;99.90;;;;;;5072885;28;20451;-75
2022/04/05 02:49:53;;;;;;;8.68;7.57;;;5.10;99.90;;;;;;5070366;28;20113;-75
2022/04/05 02:52:18;;;;;;;9.27;8.07;;;5.10;99.90;;;;;;5071907;28;20481;-75
2022/04/05 02:54:44;;;;;;;8.68;7.78;;;5.10;99.90;;;;;;5066809;28;20352;-75
2022/04/05 02:57:09;;;;;;;8.65;7.75;;;5.10;99.90;;;;;;5072207;28;20113;-75
2022/04/05 02:59:35;;;;;;;8.05;7.00;;;5.10;99.90;;;;;;5071996;28;20023;-75
2022/04/05 03:02:00;;;;;;;7.88;6.95;;;5.10;99.90;;;;;;5068150;28;20514;-75
2022/04/05 03:04:26;;;;;;;8.30;7.40;;;5.10;99.90;;;;;;5068080;28;20296;-75
2022/04/05 03:06:52;;;;;;;8.15;7.35;;;5.10;99.90;;;;;;5071197;28;20416;-75
2022/04/05 03:09:17;;;;;;;7.95;7.05;;;5.10;99.90;;;;;;5069525;28;20028;-75
2022/04/05 03:11:43;;;;;;;7.97;7.18;;;5.20;99.90;;;;;;5077104;28;20020;-75
2022/04/05 03:14:10;;;;;;;8.15;7.07;;;5.10;99.90;;;;;;5075550;28;20067;-75
2022/04/05 03:16:37;;;;;;;7.85;7.05;;;5.10;99.90;;;;;;5068499;28;20051;-75
2022/04/05 03:19:04;;;;;;;7.78;6.97;;;5.10;99.90;;;;;;5068102;28;20060;-75
2022/04/05 03:21:29;;;;;;;8.20;7.03;;;5.20;99.90;;;;;;5064154;28;20029;-74
2022/04/05 03:23:55;;;;;;;8.52;7.13;;;5.10;99.90;;;;;;5072326;28;20024;-74
2022/04/05 03:26:20;;;;;;;8.57;6.43;;;5.10;99.90;;;;;;5061833;28;20025;-74
2022/04/05 03:28:46;;;;;;;6.75;6.05;;;5.10;99.90;;;;;;5063530;28;20595;-74
2022/04/05 03:31:12;;;;;;;7.40;6.60;;;5.10;99.90;;;;;;5070564;28;20341;-74
2022/04/05 03:33:38;;;;;;;6.63;5.65;;;5.10;99.90;;;;;;5076258;28;20082;-74
2022/04/05 03:36:05;;;;;;;6.32;5.22;;;5.20;99.90;;;;;;5077490;28;20138;-74
2022/04/05 03:38:30;;;;;;;7.57;5.57;;;5.20;99.90;;;;;;5072964;28;20081;-75
2022/04/05 03:40:56;;;;;;;6.15;5.10;;;5.20;99.90;;;;;;5068475;28;20041;-73
2022/04/05 03:43:22;;;;;;;5.55;5.05;;;5.20;99.90;;;;;;5068001;28;20082;-74
2022/04/05 03:45:49;;;;;;;5.50;4.85;;;5.20;99.90;;;;;;5061820;28;20495;-74
2022/04/05 03:48:15;;;;;;;5.25;4.75;;;5.20;99.90;;;;;;5067038;28;20164;-74
2022/04/05 03:50:41;;;;;;;5.30;4.43;;;5.20;99.90;;;;;;5068881;28;20047;-74
2022/04/05 03:53:07;;;;;;;4.97;4.47;;;5.20;99.90;;;;;;5073311;28;20028;-74
2022/04/05 03:55:33;;;;;;;4.68;4.20;;;5.30;99.90;;;;;;5064752;28;20025;-74
2022/04/05 03:57:59;;;;;;;5.00;4.57;;;5.30;99.90;;;;;;5070332;28;20078;-74
2022/04/05 04:00:24;;;;;;;4.60;4.20;;;5.40;99.90;;;;;;5067717;28;20520;-74
2022/04/05 04:02:50;;;;;;;5.03;4.53;;;5.40;99.90;;;;;;5073630;28;20027;-74
2022/04/05 04:05:20;;;;;;;4.55;4.15;;;5.40;99.90;;;;;;5074881;28;20388;-74
2022/04/05 04:07:49;;;;;;;5.47;4.28;;;5.40;99.90;;;;;;5072158;28;20104;-74
2022/04/05 04:10:15;;;;;;;5.00;4.50;;;5.40;99.90;;;;;;5071424;28;20111;-74
2022/04/05 04:12:41;;;;;;;6.55;5.25;;;5.50;99.90;;;;;;5072086;28;20614;-74
2022/04/05 04:15:08;;;;;;;6.00;5.40;;;5.40;99.90;;;;;;5077293;28;20621;-74
2022/04/05 04:17:33;;;;;;;5.13;4.63;;;5.40;99.90;;;;;;5083587;28;20018;-74
2022/04/05 04:19:59;;;;;;;5.15;4.65;;;5.30;99.90;;;;;;5078088;28;20033;-74
2022/04/05 04:22:26;;;;;;;5.95;4.53;;;5.40;99.90;;;;;;5069882;28;20040;-74
2022/04/05 04:24:52;;;;;;;5.95;4.82;;;5.30;99.90;;;;;;5074943;28;20032;-74
2022/04/05 04:27:18;;;;;;;5.65;4.53;;;5.40;99.90;;;;;;5079241;28;20036;-73
2022/04/05 04:29:44;;;;;;;5.85;3.83;;;5.40;99.90;;;;;;5071679;28;20667;-74
2022/04/05 04:32:09;;;;;;;5.22;4.72;;;5.40;99.90;;;;;;5083269;28;20028;-74
2022/04/05 04:34:35;;;;;;;4.93;4.03;;;5.40;99.90;;;;;;5078855;28;20028;-74
2022/04/05 04:37:03;;;;;;;5.57;4.20;;;5.40;99.90;;;;;;5068924;28;20131;-74
2022/04/05 04:39:29;;;;;;;4.28;3.88;;;5.40;99.90;;;;;;5071493;28;20028;-75
2022/04/05 04:41:57;;;;;;;4.65;3.83;;;5.50;99.90;;;;;;5071810;28;20469;-74
2022/04/05 04:44:24;;;;;;;4.32;3.90;;;5.50;99.90;;;;;;5068828;28;20029;-75
2022/04/05 04:46:49;;;;;;;3.72;3.42;;;5.50;99.90;;;;;;5066988;28;20028;-75
2022/04/05 04:49:15;;;;;;;4.00;3.70;;;5.60;99.90;;;;;;5074736;28;20043;-74
2022/04/05 04:51:40;;;;;;;5.38;4.55;;;5.60;99.90;;;;;;5072364;28;20025;-75
2022/04/05 04:54:06;;;;;;;5.65;5.05;;;5.60;99.90;;;;;;5076428;28;20051;-75
2022/04/05 04:56:31;;;;;;;5.15;4.65;;;5.60;99.90;;;;;;5066529;28;20033;-74
2022/04/05 04:58:57;;;;;;;5.32;4.82;;;5.60;99.90;;;;;;5069478;28;20028;-74
2022/04/05 05:01:23;;;;;;;5.10;4.60;;;5.60;99.90;;;;;;5074484;28;20055;-74
2022/04/05 05:03:48;;;;;;;5.25;4.07;;;5.60;99.90;;;;;;5076644;28;20025;-75
2022/04/05 05:06:14;;;;;;;4.60;4.18;;;5.60;99.90;;;;;;5076677;28;20036;-74
2022/04/05 05:08:40;;;;;;;4.55;4.15;;;5.60;99.90;;;;;;5072654;28;20067;-74
2022/04/05 05:11:05;;;;;;;4.47;4.07;;;5.60;99.90;;;;;;5080554;28;20425;-74
2022/04/05 05:13:31;;;;;;;5.32;3.55;;;5.60;99.90;;;;;;5077934;28;20016;-74
2022/04/05 05:15:58;;;;;;;4.07;3.65;;;5.60;99.90;;;;;;5070691;28;20468;-74
2022/04/05 05:18:24;;;;;;;4.72;4.20;;;5.60;99.90;;;;;;5070877;28;20381;-74
2022/04/05 05:20:49;;;;;;;4.47;4.07;;;5.60;99.90;;;;;;5070249;28;20081;-74
2022/04/05 05:23:15;;;;;;;4.43;3.60;;;5.60;99.90;;;;;;4350629;28;10001406;-75
2022/04/05 05:25:41;;;;;;;3.63;3.33;;;5.60;99.90;;;;;;5050859;28;20151;-75
2022/04/05 05:28:06;;;;;;;4.38;3.03;;;5.60;99.90;;;;;;5050842;28;20033;-75
2022/04/05 05:30:33;;;;;;;5.20;3.70;;;5.60;99.90;;;;;;5050015;28;20074;-74
2022/04/05 05:32:59;;;;;;;3.40;3.10;;;5.70;99.90;;;;;;5053959;28;20959;-75
2022/04/05 05:35:24;;;;;;;4.85;4.20;;;5.70;99.90;;;;;;5041205;28;20024;-75
2022/04/05 05:37:51;;;;;;;4.70;4.10;;;5.70;99.90;;;;;;5041539;28;20040;-75
2022/04/05 05:40:17;;;;;;;7.53;5.60;;;5.70;99.90;;;;;;5044832;28;20179;-75
2022/04/05 05:42:47;;;;;;;5.28;4.30;;;5.70;99.90;;;;;;5055382;28;20036;-75
2022/04/05 05:45:14;;;;;;;7.53;4.60;;;5.80;99.90;;;;;;5056188;28;20040;-75
2022/04/05 05:47:40;;;;;;;5.38;4.05;;;5.80;99.90;;;;;;5050102;28;20426;-75
2022/04/05 05:50:06;;;;;;;6.38;5.03;;;5.80;99.90;;;;;;5056515;28;20041;-75
2022/04/05 05:52:32;;;;;;;4.53;4.13;;;5.80;99.90;;;;;;5054547;28;20028;-75
2022/04/05 05:54:57;;;;;;;3.42;3.13;;;5.90;99.90;;;;;;5073925;28;20028;-76
2022/04/05 05:57:23;;;;;;;2.63;2.42;;;5.90;99.90;;;;;;5083483;28;20510;-75
2022/04/05 05:59:49;;;;;;;6.32;4.32;;;5.90;99.90;;;;;;5072528;28;20240;-75
2022/04/05 06:02:14;;;;;;;5.63;4.30;;;6.00;99.90;;;;;;5072758;28;20024;-75
2022/04/05 06:04:40;;;;;;;3.75;3.10;;;5.90;99.90;;;;;;5067768;28;20024;-75
2022/04/05 06:07:06;;;;;;;2.97;2.63;;;6.00;99.90;;;;;;5073630;28;20546;-76
2022/04/05 06:09:31;;;;;;;3.10;2.78;;;6.00;99.90;;;;;;5069395;28;20107;-76
2022/04/05 06:11:57;;;;;;;3.25;2.90;;;6.00;99.90;;;;;;5075934;28;20075;-76
2022/04/05 06:14:22;;;;;;;2.70;2.50;;;6.00;99.90;;;;;;5063033;28;20024;-76
2022/04/05 06:16:48;;;;;;;3.53;3.15;;;6.10;99.90;;;;;;5080414;28;20526;-76
2022/04/05 06:19:14;;;;;;;3.55;3.25;;;6.10;99.90;;;;;;5066808;28;20036;-76
2022/04/05 06:21:39;;;;;;;3.10;2.80;;;6.10;99.90;;;;;;5068558;28;20384;-76
2022/04/05 06:24:05;;;;;;;2.90;2.60;;;6.10;99.90;;;;;;5064792;28;20652;-77
2022/04/05 06:26:31;;;;;;;3.40;3.10;;;6.10;99.90;;;;;;5066707;28;20032;-77
2022/04/05 06:28:57;;;;;;;3.03;2.72;;;6.20;99.90;;;;;;5066976;28;20059;-77
2022/04/05 06:31:23;;;;;;;3.20;2.80;;;6.20;99.90;;;;;;5070418;28;20150;-77
2022/04/05 06:33:48;;;;;;;3.13;2.80;;;6.30;99.90;;;;;;5073701;28;20119;-77
2022/04/05 06:36:14;;;;;;;3.13;2.63;;;6.30;99.90;;;;;;5081220;28;20039;-78
2022/04/05 06:38:40;;;;;;;2.72;2.50;;;6.30;99.90;;;;;;5070901;28;20495;-78
2022/04/05 06:41:06;;;;;;;7.00;5.03;;;6.30;99.90;;;;;;5073026;28;20232;-78
2022/04/05 06:43:32;;;;;;;5.30;4.18;;;6.30;99.90;;;;;;5071473;28;20112;-79
2022/04/05 06:45:58;;;;;;;7.80;7.10;;;6.40;99.90;;;;;;5069486;28;20040;-79
2022/04/05 06:48:23;;;;;;;3.90;3.50;;;6.40;99.90;;;;;;5082568;28;20036;-79
2022/04/05 06:50:50;;;;;;;3.83;3.30;;;6.40;99.90;;;;;;5074839;28;20024;-79
2022/04/05 06:53:16;;;;;;;4.97;4.50;;;6.40;99.90;;;;;;5070686;28;20032;-78
2022/04/05 06:55:42;;;;;;;5.50;5.00;;;6.40;99.90;;;;;;5066108;28;20009;-77
2022/04/05 06:58:08;;;;;;;4.07;3.60;;;6.40;99.90;;;;;;5073901;28;20028;-72
2022/04/05 07:00:34;;;;;;;3.65;3.35;;;6.50;99.90;;;;;;5070340;28;20029;-72
2022/04/05 07:03:00;;;;;;;2.85;2.53;;;6.60;99.90;;;;;;5072474;28;21100;-72
2022/04/05 07:05:27;;;;;;;6.07;4.65;;;6.60;99.90;;;;;;5065935;28;20555;-72
2022/04/05 07:07:54;;;;;;;4.90;3.38;;;6.60;99.90;;;;;;5065290;28;20035;-72
2022/04/05 07:10:20;;;;;;;3.80;3.45;;;6.60;99.90;;;;;;5065846;28;20028;-72
2022/04/05 07:12:47;;;;;;;3.90;3.00;;;6.70;99.90;;;;;;5071595;28;20035;-72
2022/04/05 07:15:13;;;;;;;3.13;2.65;;;6.70;99.90;;;;;;5072536;28;20039;-72
2022/04/05 07:17:40;;;;;;;4.03;2.22;;;6.80;99.90;;;;;;5074977;28;20043;-72
2022/04/05 07:20:08;;;;;;;2.85;2.65;;;6.90;99.90;;;;;;5071402;28;20089;-72
2022/04/05 07:22:35;;;;;;;5.22;3.63;;;6.90;99.90;;;;;;5075689;28;20024;-72
2022/04/05 07:25:01;;;;;;;3.20;2.90;;;6.90;99.90;;;;;;5066299;28;20535;-72
2022/04/05 07:27:26;;;;;;;3.65;3.20;;;6.90;99.90;;;;;;5067654;28;20480;-72
2022/04/05 07:29:52;;;;;;;5.43;4.82;;;6.90;99.90;;;;;;5065248;28;20040;-72
2022/04/05 07:32:18;;;;;;;6.10;5.50;;;6.90;99.90;;;;;;5066947;28;20162;-72
2022/04/05 07:34:43;;;;;;;4.50;3.95;;;7.00;99.90;;;;;;5064112;28;20013;-72
2022/04/05 07:37:11;;;;;;;3.65;3.35;;;7.00;99.90;;;;;;5070421;28;20027;-72
2022/04/05 07:39:38;;;;;;;3.40;3.10;;;7.00;99.90;;;;;;5073603;28;20567;-72
2022/04/05 07:42:04;;;;;;;3.40;3.10;;;7.10;99.90;;;;;;5073975;28;20039;-72
2022/04/05 07:44:30;;;;;;;3.70;3.40;;;7.10;99.90;;;;;;5071651;28;20032;-73
2022/04/05 07:46:55;;;;;;;4.05;3.75;;;7.10;99.90;;;;;;5065917;28;20439;-72
2022/04/05 07:49:21;;;;;;;2.85;2.65;;;7.10;99.90;;;;;;5066329;28;20544;-73
2022/04/05 07:51:47;;;;;;;3.00;2.70;;;7.20;99.90;;;;;;5077285;28;20441;-73
2022/04/05 07:54:13;;;;;;;3.05;2.75;;;7.20;99.90;;;;;;5066882;28;20021;-73
2022/04/05 07:56:39;;;;;;;3.10;2.78;;;7.20;99.90;;;;;;5067087;28;20017;-73
2022/04/05 07:59:05;;;;;;;3.30;3.00;;;7.20;99.90;;;;;;5068839;28;20480;-73
2022/04/05 08:01:30;;;;;;;3.60;3.08;;;7.20;99.90;;;;;;5072481;28;20224;-73
2022/04/05 08:03:56;;;;;;;3.30;3.00;;;7.20;99.90;;;;;;5065609;28;20032;-73
2022/04/05 08:06:24;;;;;;;3.58;3.28;;;7.20;99.90;;;;;;5075428;28;20024;-72
2022/04/05 08:08:50;;;;;;;3.60;3.25;;;7.30;99.90;;;;;;5064489;28;20107;-73
2022/04/05 08:11:15;;;;;;;3.10;2.80;;;7.30;99.90;;;;;;5068613;28;20710;-75
2022/04/05 08:13:41;;;;;;;2.60;2.40;;;7.40;99.90;;;;;;5066087;28;20186;-75
2022/04/05 08:16:06;;;;;;;2.42;2.22;;;7.40;99.90;;;;;;5063430;28;20025;-76
2022/04/05 08:18:32;;;;;;;2.58;2.38;;;7.40;99.90;;;;;;5082762;28;20032;-76
2022/04/05 08:20:58;;;;;;;3.95;2.85;;;7.40;99.90;;;;;;5073599;28;20135;-77
2022/04/05 08:23:23;;;;;;;2.88;2.55;;;7.40;99.90;;;;;;5067024;28;20027;-76
2022/04/05 08:25:49;;;;;;;2.83;2.63;;;7.40;99.90;;;;;;5063806;28;20025;-76
2022/04/05 08:28:15;;;;;;;2.95;2.53;;;7.30;99.90;;;;;;5079006;28;20059;-76
2022/04/05 08:30:41;;;;;;;2.70;2.50;;;7.40;99.90;;;;;;5065720;28;20031;-75
2022/04/05 08:33:06;;;;;;;3.28;2.97;;;7.40;99.90;;;;;;5074812;28;20380;-75
2022/04/05 08:35:32;;;;;;;3.45;2.67;;;7.40;99.90;;;;;;5064055;28;21051;-76
2022/04/05 08:37:58;;;;;;;5.88;4.95;;;7.40;99.90;;;;;;5084238;28;20112;-76
2022/04/05 08:40:25;;;;;;;4.45;4.00;;;7.50;99.90;;;;;;5066995;28;20071;-76
2022/04/05 08:42:53;;;;;;;4.53;4.00;;;7.60;99.90;;;;;;5083874;28;20036;-76
2022/04/05 08:45:21;;;;;;;4.05;3.72;;;7.60;99.90;;;;;;5063347;28;20123;-77
2022/04/05 08:47:50;;;;;;;2.80;2.60;;;7.60;99.90;;;;;;5077382;28;20411;-76
2022/04/05 08:50:19;;;;;;;5.68;4.35;;;7.70;99.90;;;;;;5081486;28;20059;-76
2022/04/05 08:52:46;;;;;;;3.92;3.63;;;7.70;99.90;;;;;;5056464;28;20363;-75
2022/04/05 08:55:13;;;;;;;3.95;3.30;;;7.70;99.90;;;;;;5071054;28;20017;-76
2022/04/05 08:57:39;;;;;;;6.43;5.93;;;7.70;99.90;;;;;;5072400;28;20012;-76
2022/04/05 09:00:08;;;;;;;4.10;3.80;;;7.70;99.90;;;;;;5071475;28;20025;-74
2022/04/05 09:02:34;;;;;;;5.63;5.13;;;7.80;99.90;;;;;;5080118;28;20055;-75
2022/04/05 09:04:59;;;;;;;5.22;4.82;;;7.70;99.90;;;;;;5062587;28;20552;-75
2022/04/05 09:07:31;;;;;;;4.82;4.43;;;7.70;99.90;;;;;;5071671;28;20024;-75
2022/04/05 09:10:16;;;;;;;5.97;5.05;;;7.80;99.90;;;;;;5069565;28;20036;-77
2022/04/05 09:12:48;;;;;;;6.53;5.90;;;7.80;99.90;;;;;;5067117;28;20028;-75
2022/04/05 09:15:17;;;;;;;4.57;4.18;;;7.80;99.90;;;;;;5068218;28;20032;-75
2022/04/05 09:17:45;;;;;;;3.40;3.10;;;7.80;99.90;;;;;;5069714;28;20012;-76
2022/04/05 09:20:12;;;;;;;4.93;3.78;;;7.80;99.90;;;;;;5068110;28;20117;-75
2022/04/05 09:22:38;;;;;;;4.07;3.67;;;7.80;99.90;;;;;;5073817;28;20028;-76
2022/04/05 09:25:15;;;;;;;7.35;5.20;;;7.90;99.90;;;;;;5075433;28;20670;-75
2022/04/05 09:27:49;;;;;;;7.43;5.70;;;7.90;99.90;;;;;;5068019;28;20025;-75
2022/04/05 09:30:23;;;;;;;4.28;3.88;;;7.90;99.90;;;;;;5066104;28;20039;-74
2022/04/05 09:32:51;;;;;;;2.95;2.65;;;7.90;99.90;;;;;;5076443;28;20016;-74
2022/04/05 09:35:21;;;;;;;2.70;2.50;;;8.00;99.90;;;;;;5075731;28;20463;-74
2022/04/05 09:37:47;;;;;;;6.43;5.15;;;8.00;99.90;;;;;;5081876;28;20088;-75
2022/04/05 09:40:31;;;;;;;6.22;4.85;;;8.10;99.90;;;;;;5076393;28;20032;-73
2022/04/05 09:43:09;;;;;;;4.32;3.92;;;8.10;99.90;;;;;;5067176;28;20328;-71
2022/04/05 09:45:48;;;;;;;5.63;4.50;;;8.10;99.90;;;;;;5064017;28;20040;-71
2022/04/05 09:48:17;;;;;;;3.40;3.10;;;8.10;99.90;;;;;;5071547;28;20036;-72
2022/04/05 09:51:06;;;;;;;5.18;4.68;;;8.10;99.90;;;;;;5076418;28;20449;-72
2022/04/05 09:53:50;;;;;;;4.78;4.38;;;8.10;99.90;;;;;;5070977;28;23383;-71
2022/04/05 09:56:26;;;;;;;3.25;3.00;;;8.10;99.90;;;;;;5074002;28;20482;-71
2022/04/05 09:58:52;;;;;;;2.95;2.60;;;8.10;99.90;;;;;;5079481;28;20037;-72
2022/04/05 10:01:23;;;;;;;6.47;4.10;;;8.10;99.90;;;;;;4718465;28;10000055;-72
2022/04/05 10:04:16;;;;;;;4.38;3.97;;;8.10;99.90;;;;;;5059806;28;20439;-72
2022/04/05 10:06:44;;;;;;;4.60;3.63;;;8.10;99.90;;;;;;5069193;28;20504;-72
2022/04/05 10:09:11;;;;;;;4.30;3.90;;;8.20;99.90;;;;;;5060308;28;20085;-72
2022/04/05 10:11:39;;;;;;;3.85;3.55;;;8.20;99.90;;;;;;5074505;28;20062;-72
2022/04/05 10:14:06;;;;;;;7.15;5.55;;;8.20;99.90;;;;;;5063362;28;20401;-72
2022/04/05 10:16:33;;;;;;;3.90;3.60;;;8.30;99.90;;;;;;5064153;28;20024;-71
2022/04/05 10:19:00;;;;;;;7.35;6.30;;;8.30;99.90;;;;;;5065784;28;20020;-72
2022/04/05 10:21:28;;;;;;;8.68;6.65;;;8.30;99.90;;;;;;5077890;28;20040;-71
2022/04/05 10:23:56;;;;;;;15.98;10.07;;;8.30;99.90;;;;;;5059862;28;20042;-72
2022/04/05 10:26:28;;;;;;;22.27;12.30;;;8.30;99.90;;;;;;5064204;28;20443;-72
2022/04/05 10:28:57;;;;;;;7.97;4.97;;;8.30;99.90;;;;;;5081313;28;20519;-73
2022/04/05 10:31:42;;;;;;;10.73;7.93;;;8.40;99.90;;;;;;5060825;28;20574;-72
2022/04/05 10:34:16;;;;;;;6.80;4.60;;;8.50;99.90;;;;;;5061820;28;20040;-72
2022/04/05 10:37:09;;;;;;;6.30;5.40;;;8.60;99.90;;;;;;5065194;28;20042;-71
2022/04/05 10:39:35;;;;;;;3.78;3.35;;;8.70;99.90;;;;;;5073487;28;20036;-72
2022/04/05 10:42:13;;;;;;;6.20;5.60;;;8.70;99.90;;;;;;5064541;28;20037;-72
2022/04/05 10:45:07;;;;;;;7.15;6.22;;;8.80;99.90;;;;;;4362501;28;10000787;-72
2022/04/05 10:47:33;;;;;;;9.13;6.45;;;8.80;99.90;;;;;;5066565;28;20020;-72
2022/04/05 10:50:15;;;;;;;2.72;1.90;;;8.80;99.90;;;;;;5077365;28;20066;-72
2022/04/05 10:52:46;;;;;;;3.95;1.98;;;8.90;99.90;;;;;;5063842;28;20028;-72
2022/04/05 10:55:12;;;;;;;4.85;2.13;;;8.90;99.90;;;;;;5072574;28;20308;-72
2022/04/05 10:57:39;;;;;;;1.50;1.40;;;9.00;99.90;;;;;;5067123;28;20024;-72
2022/04/05 11:00:07;;;;;;;1.00;1.00;;;9.00;99.90;;;;;;5061679;28;20055;-72
2022/04/05 11:02:58;;;;;;;3.13;2.13;;;9.00;99.90;;;;;;5068719;28;20291;-72
2022/04/05 11:05:27;;;;;;;1.77;1.67;;;9.00;99.90;;;;;;5055864;28;20066;-72
2022/04/05 11:07:59;;;;;;;2.90;1.58;;;9.00;99.90;;;;;;5063597;28;20059;-72
2022/04/05 11:10:46;;;;;;;2.00;1.90;;;9.10;99.90;;;;;;5065275;28;20078;-72
2022/04/05 11:13:44;;;;;;;2.80;1.85;;;9.10;99.90;;;;;;5072594;28;20024;-72
2022/04/05 11:16:11;;;;;;;1.63;1.50;;;9.20;99.90;;;;;;4703916;28;10001371;-72
2022/04/05 11:18:38;;;;;;;1.25;1.15;;;9.30;99.90;;;;;;5074474;28;20528;-72
2022/04/05 11:21:08;;;;;;;2.03;1.10;;;9.30;99.90;;;;;;5058230;28;20052;-72
2022/04/05 11:23:53;;;;;;;1.55;1.40;;;9.40;99.90;;;;;;5065119;28;20025;-72
2022/04/05 11:26:29;;;;;;;1.70;1.60;;;9.40;99.90;;;;;;5067852;28;20032;-73
2022/04/05 11:28:57;;;;;;;1.40;1.30;;;9.40;99.90;;;;;;5063903;28;20098;-74
2022/04/05 11:31:27;;;;;;;1.65;1.55;;;9.50;99.90;;;;;;5069579;28;20039;-73
2022/04/05 11:33:53;;;;;;;1.80;1.55;;;9.50;99.90;;;;;;5068226;28;20747;-74
2022/04/05 11:36:22;;;;;;;1.60;1.50;;;9.60;99.90;;;;;;5064573;28;20025;-72
2022/04/05 11:38:50;;;;;;;2.97;1.90;;;9.60;99.90;;;;;;5066202;28;20047;-74
2022/04/05 11:41:26;;;;;;;1.50;1.40;;;9.70;99.90;;;;;;5064047;28;20071;-73
2022/04/05 11:43:57;;;;;;;1.20;1.10;;;9.80;99.90;;;;;;5060260;28;20567;-73
2022/04/05 11:46:28;;;;;;;1.30;1.20;;;9.80;99.90;;;;;;5062668;28;20044;-74
2022/04/05 11:48:59;;;;;;;2.10;1.52;;;9.80;99.90;;;;;;5079110;28;20036;-75
2022/04/05 11:51:27;;;;;;;2.78;1.45;;;9.90;99.90;;;;;;5065983;28;20016;-73
2022/04/05 11:54:06;;;;;;;1.98;1.77;;;10.00;99.90;;;;;;5064947;28;20066;-72
2022/04/05 11:56:34;;;;;;;1.70;1.50;;;10.10;99.90;;;;;;5062606;28;20028;-73
2022/04/05 11:59:00;;;;;;;1.55;1.45;;;10.30;99.90;;;;;;5069825;28;20038;-73
2022/04/05 12:01:35;;;;;;;1.98;1.80;;;10.40;99.90;;;;;;5064259;28;20029;-75
2022/04/05 12:04:05;;;;;;;2.28;1.67;;;10.60;99.90;;;;;;5066911;28;20315;-72
2022/04/05 12:06:34;;;;;;;1.70;1.60;;;10.70;99.90;;;;;;5068515;28;20032;-71
2022/04/05 12:09:06;;;;;;;2.97;2.00;;;11.20;99.90;;;;;;5055871;28;20037;-75
2022/04/05 12:11:34;;;;;;;2.45;2.25;;;11.50;99.90;;;;;;5068381;28;20111;-74
2022/04/05 12:14:04;;;;;;;2.95;2.45;;;11.80;99.90;;;;;;5068617;28;20522;-75
2022/04/05 12:16:45;;;;;;;4.55;3.55;;;11.90;99.90;;;;;;5065199;28;20028;-74
2022/04/05 12:19:11;;;;;;;4.18;3.28;;;12.00;99.90;;;;;;5070116;28;20047;-75
2022/04/05 12:21:37;;;;;;;3.83;2.95;;;12.10;99.90;;;;;;5064085;28;20036;-74
2022/04/05 12:24:02;;;;;;;4.93;3.75;;;12.20;99.90;;;;;;5060889;28;20059;-74
2022/04/05 12:26:31;;;;;;;4.10;3.60;;;12.20;99.90;;;;;;5063771;28;20023;-73
2022/04/05 12:28:58;;;;;;;5.75;4.70;;;12.20;99.90;;;;;;5068621;28;20143;-76
2022/04/05 12:31:28;;;;;;;4.82;4.10;;;12.30;99.90;;;;;;5072523;28;20403;-72
2022/04/05 12:34:10;;;;;;;6.72;4.80;;;12.30;99.90;;;;;;5068541;28;20033;-72
2022/04/05 12:36:41;;;;;;;8.02;5.20;;;12.40;99.90;;;;;;5067775;28;20110;-73
2022/04/05 12:39:17;;;;;;;13.45;5.00;;;12.40;99.90;;;;;;5081842;28;20027;-73
2022/04/05 12:41:43;;;;;;;4.78;4.30;;;12.30;99.90;;;;;;5068114;28;20244;-74
2022/04/05 12:44:20;;;;;;;5.47;4.22;;;12.30;99.90;;;;;;5068998;28;20028;-73
2022/04/05 12:46:51;;;;;;;4.47;3.55;;;12.30;99.90;;;;;;5071976;28;20033;-71
2022/04/05 12:49:31;;;;;;;3.60;3.25;;;12.40;99.90;;;;;;5071379;28;20028;-72
2022/04/05 12:52:26;;;;;;;4.05;3.10;;;12.50;99.90;;;;;;5067232;28;20028;-74
2022/04/05 12:54:57;;;;;;;3.33;2.72;;;12.70;99.90;;;;;;5067049;28;20032;-73
2022/04/05 12:57:33;;;;;;;3.10;2.80;;;12.90;99.90;;;;;;5068751;28;20121;-74
2022/04/05 13:00:19;;;;;;;2.60;2.40;;;13.10;99.90;;;;;;5069790;28;20210;-75